Time;durP1;ratioP1;P1;durP2;ratioP2;P2;SDS_P1;SDS_P2;PMS_P1;PMS_P2;Temp;Humidity;BMP_temperature;BMP_pressure;BME280_temperature;BME280_humidity;BME280_pressure;Samples;Min_cycle;Max_cycle;Signal;HPM_P1;HPM_P2
2023/12/16 00:01:18;;;;;;;5.10;3.30;;;;;;;21.29;33.80;102337.25;102911;1299;62055;-82
2023/12/16 00:03:45;;;;;;;4.60;3.30;;;;;;;21.29;33.77;102341.37;103054;1294;62212;-82
2023/12/16 00:06:10;;;;;;;4.10;2.80;;;;;;;21.29;33.71;102339.38;102885;1294;63002;-81
2023/12/16 00:08:36;;;;;;;4.60;3.30;;;;;;;21.30;33.87;102336.48;103195;1296;62185;-81
2023/12/16 00:11:02;;;;;;;5.00;3.40;;;;;;;21.31;33.74;102339.84;103009;1294;62283;-82
2023/12/16 00:13:28;;;;;;;4.60;3.20;;;;;;;21.31;33.70;102343.42;103129;1294;62583;-81
2023/12/16 00:15:53;;;;;;;4.40;3.20;;;;;;;21.31;33.84;102347.89;102964;1294;62184;-81
2023/12/16 00:18:19;;;;;;;4.60;3.00;;;;;;;21.31;33.78;102357.02;102941;1294;62256;-82
2023/12/16 00:20:46;;;;;;;4.90;3.30;;;;;;;21.31;33.73;102361.30;103243;1292;62299;-82
2023/12/16 00:23:11;;;;;;;5.30;3.20;;;;;;;21.31;33.79;102366.67;102946;1299;62212;-81
2023/12/16 00:25:37;;;;;;;5.10;3.50;;;;;;;21.32;33.81;102371.14;102997;1293;62058;-81
2023/12/16 00:28:03;;;;;;;5.00;3.30;;;;;;;21.32;33.71;102370.42;103259;1296;62253;-81
2023/12/16 00:30:29;;;;;;;5.00;3.20;;;;;;;21.32;33.67;102372.53;103182;1296;62099;-81
2023/12/16 00:32:55;;;;;;;4.70;3.50;;;;;;;21.33;33.80;102383.42;102971;1297;62288;-81
2023/12/16 00:35:20;;;;;;;4.90;3.40;;;;;;;21.33;33.78;102387.36;102961;1294;62328;-81
2023/12/16 00:37:46;;;;;;;4.70;3.10;;;;;;;21.33;33.78;102388.27;103094;1299;62954;-81
2023/12/16 00:40:12;;;;;;;5.40;3.30;;;;;;;21.33;33.76;102389.84;103187;1296;62288;-81
2023/12/16 00:42:38;;;;;;;6.00;3.30;;;;;;;21.34;33.68;102391.82;103004;1294;62186;-81
2023/12/16 00:45:05;;;;;;;4.80;3.00;;;;;;;21.34;33.71;102395.40;103202;1297;62228;-81
2023/12/16 00:47:30;;;;;;;4.50;3.20;;;;;;;21.34;33.82;102402.19;103176;1294;72256;-81
2023/12/16 00:49:56;;;;;;;4.20;3.10;;;;;;;21.33;33.69;102396.84;102841;1298;63251;-82
2023/12/16 00:52:22;;;;;;;5.10;3.30;;;;;;;21.34;33.72;102395.55;103367;1296;62139;-82
2023/12/16 00:54:48;;;;;;;4.30;3.20;;;;;;;21.34;33.59;102402.00;103160;1294;62189;-81
2023/12/16 00:57:13;;;;;;;6.40;3.40;;;;;;;21.35;33.74;102409.14;102963;1294;62213;-82
2023/12/16 00:59:39;;;;;;;5.50;3.20;;;;;;;21.34;33.86;102406.11;103091;1293;62202;-82
2023/12/16 01:02:05;;;;;;;4.60;3.20;;;;;;;21.33;33.78;102416.19;103224;1293;75418;-80
2023/12/16 01:04:30;;;;;;;4.60;3.10;;;;;;;21.32;33.62;102420.70;103187;1296;62212;-81
2023/12/16 01:06:57;;;;;;;5.00;3.30;;;;;;;21.32;33.76;102421.09;103253;1294;63195;-81
2023/12/16 01:09:24;;;;;;;4.80;3.20;;;;;;;21.30;33.85;102430.13;102959;1294;62148;-82
2023/12/16 01:11:50;;;;;;;5.00;3.40;;;;;;;21.28;33.89;102431.27;102866;1300;62180;-81
2023/12/16 01:14:16;;;;;;;5.10;3.70;;;;;;;21.26;33.86;102436.04;102995;1299;62257;-82
2023/12/16 01:16:41;;;;;;;5.50;3.40;;;;;;;21.24;33.71;102438.98;102824;1293;63319;-82
2023/12/16 01:19:07;;;;;;;4.60;3.10;;;;;;;21.22;33.75;102437.83;103121;1294;62170;-81
2023/12/16 01:21:42;;;;;;;5.40;3.40;;;;;;;21.20;33.82;102441.14;102998;1299;62172;-82
2023/12/16 01:24:08;;;;;;;5.10;3.40;;;;;;;21.18;33.79;102444.83;102791;1299;74230;-81
2023/12/16 01:26:34;;;;;;;5.70;3.50;;;;;;;21.16;33.85;102444.74;102830;1293;62231;-82
2023/12/16 01:28:59;;;;;;;5.20;3.40;;;;;;;21.15;33.74;102452.67;103161;1296;62122;-81
2023/12/16 01:31:25;;;;;;;4.70;3.40;;;;;;;21.13;33.93;102452.58;102846;1293;62301;-82
2023/12/16 01:33:51;;;;;;;4.70;3.20;;;;;;;21.11;33.86;102447.48;102966;1299;62213;-82
2023/12/16 01:36:19;;;;;;;5.00;3.50;;;;;;;21.09;33.85;102447.75;102890;1294;62189;-81
2023/12/16 01:38:46;;;;;;;5.70;3.30;;;;;;;21.07;33.92;102453.34;103004;1299;62260;-81
2023/12/16 01:41:11;;;;;;;5.60;3.70;;;;;;;21.06;33.98;102459.11;103147;1296;62801;-82
2023/12/16 01:43:37;;;;;;;4.60;3.00;;;;;;;21.05;33.97;102467.42;102879;1293;62218;-82
2023/12/16 01:46:06;;;;;;;4.90;3.30;;;;;;;21.04;34.04;102466.58;103180;1296;62209;-82
2023/12/16 01:48:33;;;;;;;4.80;3.10;;;;;;;21.02;34.05;102471.31;103028;1299;62239;-82
2023/12/16 01:50:59;;;;;;;4.80;3.30;;;;;;;21.01;34.02;102474.95;102922;1298;62280;-82
2023/12/16 01:53:26;;;;;;;5.20;3.20;;;;;;;20.99;34.14;102475.19;102819;1292;62225;-82
2023/12/16 01:55:54;;;;;;;4.80;3.30;;;;;;;20.98;34.13;102474.02;102965;1297;62213;-82
2023/12/16 01:58:20;;;;;;;5.40;3.30;;;;;;;20.97;34.21;102474.97;102877;1294;62089;-82
2023/12/16 02:00:52;;;;;;;4.70;3.30;;;;;;;20.95;34.09;102476.64;103152;1297;62189;-81
2023/12/16 02:03:20;;;;;;;5.60;3.50;;;;;;;20.94;34.22;102478.84;102946;1293;75254;-81
2023/12/16 02:05:45;;;;;;;5.00;3.40;;;;;;;20.92;34.24;102478.00;103196;1293;62170;-81
2023/12/16 02:08:11;;;;;;;5.30;3.30;;;;;;;20.91;34.17;102480.76;102933;1292;62740;-82
2023/12/16 02:10:37;;;;;;;4.70;3.40;;;;;;;20.89;34.08;102484.68;102984;1294;62227;-82
2023/12/16 02:13:03;;;;;;;5.40;3.50;;;;;;;20.88;34.24;102489.22;103200;1292;62175;-81
2023/12/16 02:15:29;;;;;;;5.30;3.50;;;;;;;20.87;34.15;102487.55;102993;1294;62317;-82
2023/12/16 02:17:55;;;;;;;4.70;3.30;;;;;;;20.86;34.25;102483.82;102863;1294;62204;-82
2023/12/16 02:20:21;;;;;;;5.10;3.50;;;;;;;20.85;34.16;102486.58;103142;1294;62188;-82
2023/12/16 02:22:47;;;;;;;5.30;3.50;;;;;;;20.84;34.21;102490.91;102927;1299;71368;-82
2023/12/16 02:25:13;;;;;;;5.20;3.60;;;;;;;20.82;34.25;102486.70;102805;1294;75329;-82
2023/12/16 02:27:40;;;;;;;5.20;3.50;;;;;;;20.81;34.28;102485.84;103164;1293;62216;-82
2023/12/16 02:30:09;;;;;;;5.20;3.60;;;;;;;20.81;34.22;102490.33;102953;1294;62128;-81
2023/12/16 02:32:35;;;;;;;5.00;3.50;;;;;;;20.80;34.23;102494.85;103083;1298;72240;-82
2023/12/16 02:35:01;;;;;;;5.10;3.40;;;;;;;20.79;34.19;102498.30;102963;1294;62228;-82
2023/12/16 02:37:27;;;;;;;5.20;3.60;;;;;;;20.78;34.28;102499.58;103148;1296;62101;-82
2023/12/16 02:39:52;;;;;;;5.30;3.60;;;;;;;20.78;34.29;102503.88;102898;1299;62182;-82
2023/12/16 02:42:18;;;;;;;6.40;3.60;;;;;;;20.77;34.20;102507.14;103092;1296;62106;-82
2023/12/16 02:44:44;;;;;;;5.10;3.50;;;;;;;20.76;34.23;102503.42;102869;1299;62304;-81
2023/12/16 02:47:09;;;;;;;4.60;3.20;;;;;;;20.75;34.24;102510.95;102843;1299;75312;-82
2023/12/16 02:49:35;;;;;;;4.70;3.20;;;;;;;20.75;34.34;102511.51;103255;1296;62207;-82
2023/12/16 02:52:01;;;;;;;5.70;3.80;;;;;;;20.74;34.29;102517.98;103242;1294;62204;-81
2023/12/16 02:54:28;;;;;;;5.00;3.20;;;;;;;20.73;34.20;102516.58;102781;1300;62196;-81
2023/12/16 02:56:55;;;;;;;5.10;3.30;;;;;;;20.73;34.25;102521.60;103252;1296;62724;-81
2023/12/16 02:59:21;;;;;;;6.00;3.60;;;;;;;20.73;34.44;102520.90;102904;1300;62110;-82
2023/12/16 03:01:46;;;;;;;4.50;3.40;;;;;;;20.72;34.35;102525.96;103051;1293;62227;-81
2023/12/16 03:04:12;;;;;;;6.60;3.60;;;;;;;20.71;34.27;102525.97;103027;1299;62115;-81
2023/12/16 03:06:45;;;;;;;5.30;3.50;;;;;;;20.71;34.23;102534.56;102897;1292;62295;-82
2023/12/16 03:09:10;;;;;;;4.90;3.50;;;;;;;20.71;34.12;102537.42;102928;1302;76403;-82
2023/12/16 03:11:36;;;;;;;4.90;3.40;;;;;;;20.70;34.37;102532.81;102835;1298;62218;-82
2023/12/16 03:14:02;;;;;;;6.30;3.40;;;;;;;20.69;34.23;102534.81;103047;1298;62197;-82
2023/12/16 03:16:28;;;;;;;4.40;3.40;;;;;;;20.70;34.21;102539.99;102988;1298;62301;-82
2023/12/16 03:18:54;;;;;;;5.30;3.40;;;;;;;20.69;34.30;102539.83;103153;1296;62200;-82
2023/12/16 03:21:19;;;;;;;5.00;3.50;;;;;;;20.69;34.12;102543.80;102945;1294;62144;-81
2023/12/16 03:23:45;;;;;;;5.30;3.40;;;;;;;20.69;34.27;102544.34;103165;1294;62250;-82
2023/12/16 03:26:11;;;;;;;5.30;3.40;;;;;;;20.68;34.14;102548.10;103064;1298;62168;-81
2023/12/16 03:28:36;;;;;;;4.50;3.00;;;;;;;20.67;34.14;102554.55;103065;1292;62266;-81
2023/12/16 03:31:02;;;;;;;5.30;3.50;;;;;;;20.67;34.20;102555.83;103171;1296;62629;-81
2023/12/16 03:33:28;;;;;;;4.40;3.30;;;;;;;20.67;34.11;102555.47;102865;1300;62281;-81
2023/12/16 03:35:53;;;;;;;4.80;3.40;;;;;;;20.67;34.21;102562.45;102902;1298;62194;-82
2023/12/16 03:38:19;;;;;;;4.50;3.20;;;;;;;20.67;34.08;102563.89;102949;1310;62591;-82
2023/12/16 03:40:45;;;;;;;5.00;3.30;;;;;;;20.66;34.30;102562.83;102761;1294;62185;-82
2023/12/16 03:43:16;;;;;;;4.50;3.20;;;;;;;20.66;34.08;102567.34;102865;1293;63336;-82
2023/12/16 03:45:42;;;;;;;5.00;3.40;;;;;;;20.65;34.23;102567.71;102781;1296;62220;-81
2023/12/16 03:48:07;;;;;;;4.90;3.50;;;;;;;20.65;34.22;102571.30;102922;1295;62859;-82
2023/12/16 03:50:34;;;;;;;5.50;3.40;;;;;;;20.65;34.25;102570.23;102908;1300;62159;-81
2023/12/16 03:52:59;;;;;;;4.50;3.10;;;;;;;20.64;34.19;102572.23;103151;1292;62202;-81
2023/12/16 03:55:25;;;;;;;4.30;3.00;;;;;;;20.64;34.11;102574.37;102858;1299;62245;-81
2023/12/16 03:57:51;;;;;;;5.20;3.60;;;;;;;20.64;34.12;102580.48;102902;1299;62311;-82
2023/12/16 04:00:18;;;;;;;5.10;3.20;;;;;;;20.64;34.10;102579.77;102871;1300;62291;-82
2023/12/16 04:02:44;;;;;;;4.80;3.20;;;;;;;20.63;34.09;102581.75;103145;1296;62205;-81
2023/12/16 04:05:10;;;;;;;5.00;3.20;;;;;;;20.63;34.13;102587.30;102967;1293;62631;-82
2023/12/16 04:07:36;;;;;;;5.00;3.40;;;;;;;20.63;34.16;102590.52;102918;1300;62199;-81
2023/12/16 04:10:04;;;;;;;4.60;3.10;;;;;;;20.62;34.06;102590.02;102876;1293;62077;-81
2023/12/16 04:12:30;;;;;;;4.80;3.30;;;;;;;20.62;34.10;102593.26;103211;1296;61976;-81
2023/12/16 04:14:56;;;;;;;5.00;3.50;;;;;;;20.61;34.04;102596.12;102844;1292;63374;-81
2023/12/16 04:17:21;;;;;;;4.60;3.20;;;;;;;20.61;34.13;102598.63;103161;1294;62115;-81
2023/12/16 04:19:51;;;;;;;4.70;3.00;;;;;;;20.61;34.08;102601.67;102885;1293;62240;-81
2023/12/16 04:22:17;;;;;;;5.40;3.30;;;;;;;20.61;34.04;102606.70;102901;1301;72451;-81
2023/12/16 04:24:44;;;;;;;4.20;3.00;;;;;;;20.61;34.07;102609.92;102917;1298;62112;-81
2023/12/16 04:27:09;;;;;;;4.00;3.00;;;;;;;20.60;34.02;102612.98;102900;1293;62314;-81
2023/12/16 04:29:35;;;;;;;5.60;3.40;;;;;;;20.59;33.98;102616.59;103191;1296;62208;-81
2023/12/16 04:32:01;;;;;;;5.10;3.20;;;;;;;20.60;34.03;102619.27;102965;1298;63078;-81
2023/12/16 04:34:26;;;;;;;5.10;3.10;;;;;;;20.59;34.00;102616.79;102941;1300;62333;-82
2023/12/16 04:36:52;;;;;;;4.30;2.90;;;;;;;20.59;34.10;102622.15;103094;1298;62210;-82
2023/12/16 04:39:19;;;;;;;4.40;3.00;;;;;;;20.59;34.12;102625.91;103182;1293;62130;-82
2023/12/16 04:41:44;;;;;;;5.20;3.30;;;;;;;20.58;33.93;102632.03;102890;1303;63205;-81
2023/12/16 04:44:10;;;;;;;4.40;2.80;;;;;;;20.58;33.88;102639.55;102494;1299;62098;-81
2023/12/16 04:46:36;;;;;;;4.50;2.90;;;;;;;20.58;34.01;102641.70;102669;1302;62269;-81
2023/12/16 04:49:01;;;;;;;4.60;3.10;;;;;;;20.58;33.92;102643.31;102734;1299;62708;-81
2023/12/16 04:51:27;;;;;;;4.20;2.90;;;;;;;20.58;33.88;102649.76;102568;1305;62302;-81
2023/12/16 04:53:53;;;;;;;4.60;3.00;;;;;;;20.57;33.92;102646.93;102464;1299;62157;-82
2023/12/16 04:56:19;;;;;;;4.30;2.90;;;;;;;20.57;33.88;102658.90;102612;1306;62532;-82
2023/12/16 04:58:45;;;;;;;4.90;3.10;;;;;;;20.56;33.84;102661.09;102573;1300;63213;-82
2023/12/16 05:01:11;;;;;;;4.30;3.20;;;;;;;20.56;33.86;102661.62;102738;1302;62225;-81
2023/12/16 05:03:43;;;;;;;4.30;3.00;;;;;;;20.56;33.84;102668.08;102695;1300;62608;-81
2023/12/16 05:06:09;;;;;;;5.10;2.90;;;;;;;20.55;33.92;102668.09;102722;1304;72648;-81
2023/12/16 05:08:34;;;;;;;4.20;2.90;;;;;;;20.55;33.97;102668.45;102603;1305;62213;-82
2023/12/16 05:11:01;;;;;;;4.30;2.90;;;;;;;20.56;33.83;102668.46;102691;1300;62222;-82
2023/12/16 05:13:27;;;;;;;4.10;2.60;;;;;;;20.56;33.73;102666.30;102787;1299;62833;-81
2023/12/16 05:15:52;;;;;;;4.40;2.50;;;;;;;20.55;33.97;102666.67;102963;1294;62678;-82
2023/12/16 05:18:18;;;;;;;3.80;2.60;;;;;;;20.55;33.83;102668.30;103156;1293;62230;-81
2023/12/16 05:20:44;;;;;;;4.00;2.80;;;;;;;20.55;33.78;102672.44;103246;1296;62215;-81
2023/12/16 05:23:09;;;;;;;4.40;3.00;;;;;;;20.54;33.80;102674.23;102964;1299;62170;-82
2023/12/16 05:25:35;;;;;;;4.30;2.80;;;;;;;20.53;33.88;102669.06;103203;1294;62223;-81
2023/12/16 05:28:01;;;;;;;4.50;2.60;;;;;;;20.53;33.64;102675.34;102988;1296;63496;-81
2023/12/16 05:30:28;;;;;;;4.30;2.80;;;;;;;20.53;33.84;102679.27;103170;1293;62110;-81
2023/12/16 05:32:54;;;;;;;4.00;2.60;;;;;;;20.52;33.82;102675.17;103020;1292;62277;-82
2023/12/16 05:35:20;;;;;;;4.20;2.90;;;;;;;20.53;33.79;102675.73;102952;1294;62731;-82
2023/12/16 05:37:47;;;;;;;4.30;2.80;;;;;;;20.52;33.62;102676.30;102819;1300;62149;-82
2023/12/16 05:40:13;;;;;;;3.60;2.40;;;;;;;20.52;33.66;102684.31;102890;1301;62176;-81
2023/12/16 05:42:45;;;;;;;4.10;2.50;;;;;;;20.52;33.57;102689.71;102998;1294;62264;-81
2023/12/16 05:45:10;;;;;;;4.60;2.80;;;;;;;20.52;33.59;102687.20;102887;1294;62196;-81
2023/12/16 05:47:36;;;;;;;3.90;2.60;;;;;;;20.51;33.63;102686.15;103076;1293;62191;-81
2023/12/16 05:50:03;;;;;;;3.70;2.70;;;;;;;20.51;33.66;102685.80;103043;1296;62215;-81
2023/12/16 05:52:30;;;;;;;3.70;2.50;;;;;;;20.51;33.70;102686.71;103302;1294;62308;-81
2023/12/16 05:54:55;;;;;;;3.80;2.40;;;;;;;20.51;33.54;102690.09;102994;1293;62207;-80
2023/12/16 05:57:21;;;;;;;4.00;2.50;;;;;;;20.51;33.60;102691.90;102815;1301;63764;-82
2023/12/16 05:59:47;;;;;;;4.70;2.80;;;;;;;20.50;33.53;102692.45;102935;1298;63355;-81
2023/12/16 06:02:13;;;;;;;4.40;2.70;;;;;;;20.50;33.59;102703.38;102994;1298;62122;-81
2023/12/16 06:04:38;;;;;;;3.90;2.40;;;;;;;20.50;33.68;102707.51;103213;1294;62144;-82
2023/12/16 06:07:04;;;;;;;3.70;2.40;;;;;;;20.50;33.59;102714.48;102846;1293;62319;-82
2023/12/16 06:09:30;;;;;;;4.20;2.50;;;;;;;20.49;33.49;102721.10;102870;1299;62311;-81
2023/12/16 06:11:56;;;;;;;3.50;2.40;;;;;;;20.49;33.35;102728.80;102853;1292;62256;-81
2023/12/16 06:14:23;;;;;;;4.10;2.40;;;;;;;20.48;33.48;102733.11;103170;1294;62214;-81
2023/12/16 06:16:49;;;;;;;4.70;2.60;;;;;;;20.49;33.52;102732.59;103212;1293;62218;-81
2023/12/16 06:19:15;;;;;;;3.50;2.40;;;;;;;20.48;33.36;102739.23;102941;1295;62291;-81
2023/12/16 06:21:40;;;;;;;3.50;2.40;;;;;;;20.48;33.45;102742.27;103216;1296;62128;-81
2023/12/16 06:24:08;;;;;;;3.70;2.40;;;;;;;20.48;33.41;102753.52;103014;1296;62288;-82
2023/12/16 06:26:34;;;;;;;3.50;2.50;;;;;;;20.48;33.38;102760.71;102997;1297;62397;-81
2023/12/16 06:28:59;;;;;;;4.30;2.40;;;;;;;20.48;33.45;102763.92;103191;1294;62162;-81
2023/12/16 06:31:25;;;;;;;3.50;2.40;;;;;;;20.48;33.24;102766.06;102908;1299;62263;-82
2023/12/16 06:33:51;;;;;;;3.90;2.30;;;;;;;20.47;33.38;102776.45;102867;1299;62228;-81
2023/12/16 06:36:17;;;;;;;3.60;2.40;;;;;;;20.47;33.12;102786.30;102907;1294;62154;-81
2023/12/16 06:38:42;;;;;;;3.30;2.20;;;;;;;20.47;33.25;102788.09;102978;1298;63400;-82
2023/12/16 06:41:08;;;;;;;3.80;2.40;;;;;;;20.47;33.34;102790.42;103295;1293;62189;-81
2023/12/16 06:43:34;;;;;;;3.50;2.20;;;;;;;20.47;33.09;102789.71;102815;1294;63396;-83
2023/12/16 06:46:00;;;;;;;3.60;2.20;;;;;;;20.46;33.20;102791.15;103206;1296;62204;-82
2023/12/16 06:48:25;;;;;;;4.00;2.40;;;;;;;20.47;33.15;102784.17;103093;1294;62301;-80
2023/12/16 06:50:51;;;;;;;3.20;2.30;;;;;;;20.46;33.22;102782.20;103257;1294;62160;-81
2023/12/16 06:53:17;;;;;;;3.10;2.10;;;;;;;20.46;33.31;102786.15;103264;1294;62120;-82
2023/12/16 06:55:43;;;;;;;3.00;2.10;;;;;;;20.46;33.17;102799.40;102798;1294;72518;-82
2023/12/16 06:58:10;;;;;;;3.80;2.10;;;;;;;20.46;33.38;102804.21;103239;1294;62202;-81
2023/12/16 07:00:35;;;;;;;4.10;2.50;;;;;;;20.46;33.04;102808.16;102989;1299;62216;-82
2023/12/16 07:03:01;;;;;;;4.90;2.20;;;;;;;20.46;33.20;102812.45;103276;1293;62647;-82
2023/12/16 07:05:32;;;;;;;3.70;2.30;;;;;;;20.46;33.14;102807.80;103019;1293;62064;-82
2023/12/16 07:07:58;;;;;;;3.60;2.40;;;;;;;20.46;33.31;102811.92;103295;1293;75173;-82
2023/12/16 07:10:24;;;;;;;3.20;2.10;;;;;;;20.46;33.13;102809.42;103101;1299;62263;-82
2023/12/16 07:12:49;;;;;;;3.40;2.20;;;;;;;20.46;33.05;102804.05;102976;1299;63022;-81
2023/12/16 07:15:15;;;;;;;3.50;2.30;;;;;;;20.45;33.12;102804.95;103003;1292;62265;-82
2023/12/16 07:17:41;;;;;;;3.30;2.10;;;;;;;20.45;33.17;102809.79;102882;1294;62303;-81
2023/12/16 07:20:08;;;;;;;3.80;2.10;;;;;;;20.45;33.11;102814.98;103280;1294;62120;-81
2023/12/16 07:22:34;;;;;;;3.30;2.20;;;;;;;20.45;32.97;102818.40;102820;1297;62365;-82
2023/12/16 07:25:01;;;;;;;4.00;2.20;;;;;;;20.45;33.07;102824.48;102812;1296;62192;-82
2023/12/16 07:27:27;;;;;;;3.20;2.00;;;;;;;20.45;33.16;102827.89;102850;1295;62262;-82
2023/12/16 07:29:52;;;;;;;3.00;2.10;;;;;;;20.45;32.98;102834.49;102814;1296;62349;-82
2023/12/16 07:32:19;;;;;;;3.30;2.00;;;;;;;20.44;32.89;102833.61;102858;1297;63683;-82
2023/12/16 07:34:45;;;;;;;3.10;2.10;;;;;;;20.44;32.97;102832.91;102776;1297;62341;-82
2023/12/16 07:37:10;;;;;;;3.60;2.10;;;;;;;20.44;32.99;102833.27;102224;1297;697570;-82
2023/12/16 07:39:37;;;;;;;3.80;2.40;;;;;;;20.44;33.01;102842.23;102598;1302;62164;-82
2023/12/16 07:42:03;;;;;;;3.70;2.30;;;;;;;20.43;32.88;102846.69;102755;1297;63316;-82
2023/12/16 07:44:28;;;;;;;3.50;2.10;;;;;;;20.43;32.93;102852.41;102860;1296;63412;-82
2023/12/16 07:46:55;;;;;;;3.40;2.10;;;;;;;20.43;33.01;102849.91;102788;1299;62480;-82
2023/12/16 07:49:25;;;;;;;3.40;2.00;;;;;;;20.43;32.95;102857.99;102889;1297;63010;-82
2023/12/16 07:51:54;;;;;;;4.00;2.10;;;;;;;20.43;32.93;102860.12;102859;1297;75285;-82
2023/12/16 07:54:22;;;;;;;3.10;2.10;;;;;;;20.42;32.95;102860.69;102888;1297;62193;-82
2023/12/16 07:56:49;;;;;;;3.80;2.20;;;;;;;20.42;32.94;102861.40;102824;1297;62202;-82
2023/12/16 07:59:14;;;;;;;3.60;2.30;;;;;;;20.42;32.78;102861.95;102870;1296;62685;-82
2023/12/16 08:01:40;;;;;;;3.60;2.00;;;;;;;20.42;32.97;102862.29;103133;1296;62180;-82
2023/12/16 08:04:06;;;;;;;3.70;2.10;;;;;;;20.42;32.85;102861.94;102942;1294;62187;-82
2023/12/16 08:06:31;;;;;;;3.00;1.90;;;;;;;20.42;33.11;102860.70;103291;1296;62198;-82
2023/12/16 08:08:58;;;;;;;2.40;1.80;;;;;;;20.42;33.06;102866.96;103177;1296;62256;-82
2023/12/16 08:11:24;;;;;;;3.50;2.30;;;;;;;20.41;32.85;102866.98;103034;1299;71504;-82
2023/12/16 08:13:50;;;;;;;3.70;1.90;;;;;;;20.41;32.79;102866.62;102930;1299;62589;-82
2023/12/16 08:16:16;;;;;;;3.60;2.00;;;;;;;20.41;32.75;102868.23;103000;1293;62102;-82
2023/12/16 08:18:42;;;;;;;3.20;2.10;;;;;;;20.41;32.88;102869.66;102917;1294;62221;-82
2023/12/16 08:21:07;;;;;;;3.60;2.30;;;;;;;20.41;32.92;102866.98;103013;1294;62289;-82
2023/12/16 08:23:33;;;;;;;3.50;2.30;;;;;;;20.40;32.81;102868.09;103270;1298;62215;-82
2023/12/16 08:25:59;;;;;;;3.70;2.20;;;;;;;20.41;32.70;102876.84;102988;1293;62215;-82
2023/12/16 08:28:24;;;;;;;3.90;2.10;;;;;;;20.40;32.90;102881.14;103214;1294;62106;-82
2023/12/16 08:30:52;;;;;;;3.30;2.20;;;;;;;20.40;32.78;102880.61;103327;1293;62161;-82
2023/12/16 08:33:18;;;;;;;3.70;2.00;;;;;;;20.40;32.85;102876.50;103055;1299;72222;-82
2023/12/16 08:35:45;;;;;;;3.70;2.20;;;;;;;20.40;32.78;102873.83;102968;1294;62319;-82
2023/12/16 08:38:10;;;;;;;2.90;1.90;;;;;;;20.40;33.00;102876.14;103234;1296;62233;-81
2023/12/16 08:40:36;;;;;;;3.20;2.00;;;;;;;20.40;32.78;102877.77;102962;1293;62222;-81
2023/12/16 08:43:02;;;;;;;2.60;1.80;;;;;;;20.40;32.78;102877.40;103334;1293;62123;-81
2023/12/16 08:45:27;;;;;;;3.30;2.10;;;;;;;20.40;32.72;102868.64;102955;1294;62183;-81
2023/12/16 08:47:53;;;;;;;3.20;2.10;;;;;;;20.40;32.67;102862.02;102995;1299;62241;-82
2023/12/16 08:50:19;;;;;;;3.30;2.20;;;;;;;20.40;32.76;102865.61;103183;1294;62296;-82
2023/12/16 08:52:46;;;;;;;3.40;2.00;;;;;;;20.39;32.95;102866.15;103105;1294;62408;-82
2023/12/16 08:55:12;;;;;;;3.00;1.90;;;;;;;20.39;32.88;102867.23;103309;1296;62123;-82
2023/12/16 08:57:38;;;;;;;3.30;2.20;;;;;;;20.39;32.86;102870.81;103018;1294;62097;-82
2023/12/16 09:00:05;;;;;;;3.00;1.90;;;;;;;20.39;32.75;102861.70;103017;1299;62152;-82
2023/12/16 09:02:31;;;;;;;3.70;2.00;;;;;;;20.39;32.79;102857.57;103193;1294;62188;-82
2023/12/16 09:04:56;;;;;;;3.20;1.90;;;;;;;20.39;32.68;102850.61;102856;1294;63997;-82
2023/12/16 09:07:22;;;;;;;3.70;2.10;;;;;;;20.39;32.77;102847.21;103230;1294;62125;-82
2023/12/16 09:09:48;;;;;;;3.30;2.00;;;;;;;20.39;32.78;102847.04;103248;1296;62221;-82
2023/12/16 09:12:13;;;;;;;3.80;2.10;;;;;;;20.39;32.78;102845.96;103258;1292;62184;-81
2023/12/16 09:14:39;;;;;;;3.30;2.10;;;;;;;20.39;32.66;102846.68;103168;1293;62124;-82
2023/12/16 09:17:05;;;;;;;3.90;2.10;;;;;;;20.39;32.75;102842.56;102871;1299;62201;-81
2023/12/16 09:19:30;;;;;;;3.30;2.00;;;;;;;20.39;32.69;102833.10;102864;1292;62189;-81
2023/12/16 09:21:56;;;;;;;3.20;2.00;;;;;;;20.39;32.64;102831.13;102954;1293;62282;-81
2023/12/16 09:24:22;;;;;;;3.50;2.10;;;;;;;20.38;32.71;102829.88;103114;1294;62281;-81
2023/12/16 09:26:47;;;;;;;2.70;1.80;;;;;;;20.39;32.71;102832.56;102845;1294;62160;-82
2023/12/16 09:29:13;;;;;;;3.20;2.00;;;;;;;20.39;32.73;102828.29;103297;1294;63267;-82
2023/12/16 09:31:39;;;;;;;3.20;2.10;;;;;;;20.38;32.74;102828.10;103220;1296;62142;-82
2023/12/16 09:34:05;;;;;;;3.50;1.90;;;;;;;20.38;32.59;102827.56;102870;1293;62135;-82
2023/12/16 09:36:31;;;;;;;4.20;2.20;;;;;;;20.38;32.61;102826.86;102950;1298;62227;-80
2023/12/16 09:38:57;;;;;;;2.90;1.90;;;;;;;20.38;32.68;102817.75;103243;1294;62205;-81
2023/12/16 09:41:30;;;;;;;3.10;2.20;;;;;;;20.38;32.51;102813.64;102856;1294;72524;-81
2023/12/16 09:44:00;;;;;;;2.70;1.80;;;;;;;20.38;32.73;102818.46;102981;1298;74156;-81
2023/12/16 09:46:30;;;;;;;2.80;1.80;;;;;;;20.38;32.76;102821.33;103252;1294;63064;-81
2023/12/16 09:48:56;;;;;;;2.70;1.80;;;;;;;20.38;32.60;102819.19;103009;1296;62090;-82
2023/12/16 09:51:23;;;;;;;3.60;2.10;;;;;;;20.37;32.67;102826.52;103157;1293;62202;-81
2023/12/16 09:53:53;;;;;;;3.10;1.90;;;;;;;20.38;32.56;102827.59;102872;1294;62218;-82
2023/12/16 09:56:19;;;;;;;3.00;2.00;;;;;;;20.38;32.71;102830.27;103241;1293;62226;-82
2023/12/16 09:58:46;;;;;;;3.40;1.90;;;;;;;20.38;32.63;102830.61;102965;1297;63345;-82
2023/12/16 10:01:17;;;;;;;2.50;1.70;;;;;;;20.39;32.59;102827.92;102979;1293;72558;-82
2023/12/16 10:03:47;;;;;;;3.10;1.90;;;;;;;20.38;32.60;102827.03;102961;1293;75312;-82
2023/12/16 10:06:12;;;;;;;3.50;2.20;;;;;;;20.38;32.54;102820.23;103021;1298;63356;-82
2023/12/16 10:08:40;;;;;;;3.10;2.00;;;;;;;20.39;32.57;102829.34;103208;1294;62127;-82
2023/12/16 10:11:06;;;;;;;3.40;2.10;;;;;;;20.39;32.44;102831.30;102928;1293;71364;-82
2023/12/16 10:13:53;;;;;;;3.00;2.00;;;;;;;20.40;32.61;102830.91;103167;1296;62147;-81
2023/12/16 10:16:21;;;;;;;2.50;1.70;;;;;;;20.40;32.49;102840.04;102983;1292;62095;-82
2023/12/16 10:18:53;;;;;;;4.60;2.00;;;;;;;20.40;32.45;102837.70;102839;1294;62215;-81
2023/12/16 10:21:26;;;;;;;3.60;1.90;;;;;;;20.40;32.55;102838.92;103007;1292;73636;-81
2023/12/16 10:24:00;;;;;;;4.00;2.00;;;;;;;20.41;32.56;102837.66;103191;1294;75250;-83
2023/12/16 10:26:29;;;;;;;2.90;1.80;;;;;;;20.41;32.51;102839.64;103168;1293;62145;-82
2023/12/16 10:28:55;;;;;;;2.90;2.00;;;;;;;20.41;32.43;102844.46;103012;1293;62237;-81
2023/12/16 10:31:22;;;;;;;3.50;2.00;;;;;;;20.41;32.48;102847.13;103030;1293;62205;-81
2023/12/16 10:33:53;;;;;;;3.90;2.10;;;;;;;20.42;32.48;102850.86;102949;1294;62241;-81
2023/12/16 10:36:19;;;;;;;2.90;1.90;;;;;;;20.42;32.26;102850.52;103070;1296;62207;-82
2023/12/16 10:38:45;;;;;;;3.20;2.10;;;;;;;20.42;32.26;102849.44;102998;1292;62317;-82
2023/12/16 10:41:10;;;;;;;2.70;2.00;;;;;;;20.42;32.45;102845.48;102780;1294;62697;-81
2023/12/16 10:43:37;;;;;;;3.50;1.80;;;;;;;20.42;32.35;102842.99;102980;1293;63417;-81
2023/12/16 10:46:04;;;;;;;4.00;2.20;;;;;;;20.42;32.50;102835.11;103221;1294;62269;-81
2023/12/16 10:48:34;;;;;;;2.80;1.70;;;;;;;20.43;32.27;102833.30;103089;1292;63240;-81
2023/12/16 10:51:02;;;;;;;2.80;2.00;;;;;;;20.43;32.37;102842.60;103021;1294;72399;-81
2023/12/16 10:53:41;;;;;;;2.80;1.80;;;;;;;20.43;32.38;102840.44;102953;1292;75318;-81
2023/12/16 10:56:23;;;;;;;2.60;1.70;;;;;;;20.43;32.30;102840.61;103207;1293;62158;-81
2023/12/16 10:59:16;;;;;;;3.40;1.90;;;;;;;20.43;32.43;102834.54;103320;1294;62202;-81
2023/12/16 11:01:48;;;;;;;2.70;1.80;;;;;;;20.42;32.44;102836.55;103223;1295;72472;-81
2023/12/16 11:04:17;;;;;;;3.10;2.10;;;;;;;20.42;32.44;102834.92;103045;1293;75114;-81
2023/12/16 11:07:03;;;;;;;3.60;1.90;;;;;;;20.43;32.46;102835.80;103012;1294;62158;-82
2023/12/16 11:09:29;;;;;;;3.30;2.10;;;;;;;20.43;32.24;102845.11;103212;1294;62128;-82
2023/12/16 11:11:57;;;;;;;3.00;1.90;;;;;;;20.43;32.54;102843.14;102788;1299;62705;-82
2023/12/16 11:14:24;;;;;;;2.60;1.90;;;;;;;20.43;32.24;102844.92;103078;1293;74212;-82